Terminal Aerodrome Forecast
Issued by NWS Indianapolis, IN

Home | Current Version | Previous Version | Text Only | Print | Product List | Glossary On
Versions: 1 2 3 4 5 6 7 8 9 10 11 12 13 14 15 16 17 18 19 20 21 22 23 24 25 26 27 28 29 30
000
FTUS43 KIND 271331 AAB
TAFIND
TAF AMD
KIND 271331Z 2714/2818 VRB06KT P6SM VCTS SCT030CB BKN100
     FM280100 19006KT P6SM SCT035 BKN100
     FM281000 21003KT 5SM BR BKN100
     FM281400 21007KT P6SM SCT030 BKN100=

USA.gov is the U.S. government's official web portal to all federal, state and local government web resources and services.